SBOSBO IBZ / LEIB
Speedbird OnlineSpeedbird Online IBZ / LEIB

Ibiza Airport
18:04 23.9°C

Location Ibiza, Spain
Latitude: 38.872898101800004
Longitude: 1.3731199502899998
Local Time 18:04 on 30 May 2024
UTC +2 hours (Europe/Madrid)
Currency £1 equals EUR 1.18
METAR LEIB 301530Z 08007KT 050V120 CAVOK 24/18 Q1010 NOSIG
TAF TAF LEIB 301400Z 3015/3115 11007KT CAVOK TX24/3112Z TN18/3105Z TEMPO 3020/3024 VRB04KT BECMG 3100/3103 09014KT TEMPO 3102/3111 09015G25KT PROB40 TEMPO 3103/3105 09020G30KT
Weather As Of 30 May 2024 18:04
Description Clear sky
Wind 13 km/h from East (80°)
Cloud Cover 0%
Precipitation Rain: none, Snow: none
Sunrise 06:32
Sunset 21:12
NOTAM 18 active NOTAM
Rotations During the last 90 days there were
104 flights from LCY
56 flights from LGW
51 flights from LHR
96 flights to LCY
56 flights to LGW
51 flights to LHR
1 flights to JER
Lounges Cap des Falco Lounge, Main Terminal
Web Airport Website | Wikipedia
Codes IATA: IBZ
ICAO: LEIB
Altitude 7 Meter / 24 Feet
Distance 1,408 KM / 875 Miles
from London.
Runways
RunwayLength (m)Surface
062800Asphalt
242800Asphalt
Radio
TypeDescriptionFrequency
APPPALMA APP118.125
APPAPP119.8
ATISATIS117.8
GNDGND121.8
TWRTWR118.5
Live ATC



Support Speedbird Online

© 2017-2024 Speedbird Online